createdAt,value
2023-02-26T00:02:02.969Z,73.82
2023-02-26T00:04:32.338Z,73.48
2023-02-26T00:07:01.178Z,73.56
2023-02-26T00:09:30.425Z,72.81
2023-02-26T00:12:01.238Z,73.54
2023-02-26T00:14:30.838Z,74.38
2023-02-26T00:17:16.909Z,74.94
2023-02-26T00:19:46.242Z,74.86
2023-02-26T00:22:15.107Z,75.01
2023-02-26T00:24:43.391Z,74.87
2023-02-26T00:27:14.662Z,74.75
2023-02-26T00:29:45.104Z,75.22
2023-02-26T00:32:14.791Z,75.70
2023-02-26T00:34:43.760Z,74.67
2023-02-26T00:37:26.828Z,75.36
2023-02-26T00:40:06.670Z,74.47
2023-02-26T00:42:38.714Z,74.75
2023-02-26T00:45:09.091Z,74.87
2023-02-26T00:47:49.034Z,75.00
2023-02-26T00:50:21.786Z,75.33
2023-02-26T00:53:04.643Z,75.38
2023-02-26T00:55:33.926Z,75.77
2023-02-26T00:58:05.939Z,75.66
2023-02-26T01:00:34.226Z,76.75
2023-02-26T01:03:03.564Z,76.11
2023-02-26T01:05:33.057Z,75.77
2023-02-26T01:08:07.695Z,76.15
2023-02-26T01:10:36.784Z,76.59
2023-02-26T01:13:06.751Z,77.23
2023-02-26T01:15:35.791Z,77.73
2023-02-26T01:18:11.049Z,77.10
2023-02-26T01:20:46.624Z,77.92
2023-02-26T01:23:20.920Z,77.76
2023-02-26T01:25:52.371Z,77.68
2023-02-26T01:28:23.812Z,78.51
2023-02-26T01:30:52.467Z,78.22
2023-02-26T01:33:26.585Z,78.24
2023-02-26T01:35:59.875Z,78.67
2023-02-26T01:38:33.768Z,78.87
2023-02-26T01:41:28.218Z,78.71
2023-02-26T01:44:07.329Z,79.27
2023-02-26T01:46:41.133Z,79.57
2023-02-26T01:49:16.928Z,79.36
2023-02-26T01:51:51.132Z,78.89
2023-02-26T01:54:22.522Z,79.50
2023-02-26T01:56:57.162Z,79.49
2023-02-26T01:59:27.631Z,79.53
2023-02-26T02:01:59.664Z,80.15
2023-02-26T02:04:29.158Z,80.33
2023-02-26T02:06:59.641Z,79.90
2023-02-26T02:09:29.418Z,80.59
2023-02-26T02:12:10.563Z,80.78
2023-02-26T02:14:51.755Z,80.86
2023-02-26T02:17:26.884Z,81.47
2023-02-26T02:20:29.988Z,81.09
2023-02-26T02:23:09.943Z,80.59
2023-02-26T02:26:11.386Z,81.46
2023-02-26T02:29:02.029Z,81.12
2023-02-26T02:31:37.526Z,81.15
2023-02-26T02:34:14.365Z,81.16
2023-02-26T02:36:53.560Z,80.75
2023-02-26T02:39:26.132Z,81.58
2023-02-26T02:42:00.435Z,81.28
2023-02-26T02:44:33.160Z,80.77
2023-02-26T02:47:05.626Z,80.76
2023-02-26T02:49:41.447Z,79.89
2023-02-26T02:52:18.230Z,79.12
2023-02-26T02:54:53.348Z,79.59
2023-02-26T02:57:25.925Z,78.77
2023-02-26T02:59:59.797Z,78.16
2023-02-26T03:02:38.437Z,78.78
2023-02-26T03:05:08.292Z,77.86
2023-02-26T03:07:44.395Z,78.30
2023-02-26T03:10:14.349Z,77.17
2023-02-26T03:12:44.623Z,77.21
2023-02-26T03:15:15.033Z,78.75
2023-02-26T03:17:56.201Z,77.34
2023-02-26T03:20:31.415Z,78.80
2023-02-26T03:23:09.075Z,78.87
2023-02-26T03:25:46.630Z,78.23
2023-02-26T03:28:25.863Z,78.18
2023-02-26T03:31:02.140Z,77.42
2023-02-26T03:33:40.308Z,77.40
2023-02-26T03:36:17.214Z,77.31
2023-02-26T03:38:52.230Z,77.43
2023-02-26T03:41:25.856Z,77.99
2023-02-26T03:44:01.303Z,78.28
2023-02-26T03:46:36.768Z,78.90
2023-02-26T03:49:14.669Z,78.17
2023-02-26T03:51:44.502Z,77.83
2023-02-26T03:54:21.748Z,76.73
2023-02-26T03:56:50.122Z,77.23
2023-02-26T03:59:19.105Z,77.00
2023-02-26T04:01:54.284Z,77.53
2023-02-26T04:04:30.013Z,77.95
2023-02-26T04:07:02.083Z,78.12
2023-02-26T04:09:31.048Z,77.41
2023-02-26T04:12:02.364Z,78.08
2023-02-26T04:14:33.740Z,78.95
2023-02-26T04:17:07.639Z,77.77
2023-02-26T04:19:39.196Z,78.92
2023-02-26T04:22:12.799Z,78.83
2023-02-26T04:24:41.117Z,77.94
2023-02-26T04:27:10.606Z,78.07
2023-02-26T04:29:42.949Z,78.19
2023-02-26T04:32:11.663Z,78.64
2023-02-26T04:34:46.804Z,78.89
2023-02-26T04:37:17.432Z,79.78
2023-02-26T04:39:47.017Z,79.48
2023-02-26T04:42:20.456Z,78.98
2023-02-26T04:44:53.172Z,78.19
2023-02-26T04:47:26.921Z,78.98
2023-02-26T04:50:02.132Z,79.41
2023-02-26T04:52:32.446Z,78.21
2023-02-26T04:55:03.657Z,78.54
2023-02-26T04:57:37.225Z,77.80
2023-02-26T05:00:08.437Z,78.05
2023-02-26T05:02:36.891Z,78.54
2023-02-26T05:05:13.149Z,78.80
2023-02-26T05:07:44.792Z,79.99
2023-02-26T05:10:15.715Z,78.61
2023-02-26T05:12:45.147Z,79.10
2023-02-26T05:15:13.877Z,79.21
2023-02-26T05:17:44.236Z,77.99
2023-02-26T05:20:16.939Z,78.62
2023-02-26T05:22:47.369Z,78.18
2023-02-26T05:25:15.826Z,79.53
2023-02-26T05:27:44.323Z,80.99
2023-02-26T05:30:16.833Z,80.42
2023-02-26T05:32:45.267Z,77.95
2023-02-26T05:35:15.042Z,79.71
2023-02-26T05:37:43.750Z,78.21
2023-02-26T05:40:13.181Z,79.35
2023-02-26T05:42:41.746Z,79.79
2023-02-26T05:45:11.654Z,80.39
2023-02-26T05:47:39.789Z,79.58
2023-02-26T05:50:08.668Z,79.54
2023-02-26T05:52:38.842Z,79.35
2023-02-26T05:55:08.546Z,80.67
2023-02-26T05:57:36.832Z,79.84
2023-02-26T06:00:06.887Z,80.14
2023-02-26T06:02:35.158Z,80.51
2023-02-26T06:05:04.113Z,80.38
2023-02-26T06:07:32.790Z,81.53
2023-02-26T06:10:02.603Z,81.85
2023-02-26T06:12:30.889Z,81.48
2023-02-26T06:14:59.504Z,81.47
2023-02-26T06:17:27.827Z,81.66
2023-02-26T06:19:56.635Z,81.67
2023-02-26T06:22:24.804Z,82.59
2023-02-26T06:24:55.226Z,82.37
2023-02-26T06:27:25.803Z,82.09
2023-02-26T06:29:54.285Z,82.21
2023-02-26T06:32:22.827Z,81.85
2023-02-26T06:34:51.522Z,81.41
2023-02-26T06:37:19.825Z,82.05
2023-02-26T06:39:48.158Z,81.72
2023-02-26T06:42:18.484Z,81.37
2023-02-26T06:44:49.626Z,80.72
2023-02-26T06:47:18.401Z,81.12
2023-02-26T06:49:46.615Z,80.63
2023-02-26T06:52:15.252Z,81.40
2023-02-26T06:54:43.892Z,79.40
2023-02-26T06:57:12.030Z,80.27
2023-02-26T06:59:40.130Z,79.14
2023-02-26T07:02:18.511Z,80.91
2023-02-26T07:04:46.815Z,77.99
2023-02-26T07:07:16.154Z,77.23
2023-02-26T07:09:46.059Z,78.12
2023-02-26T07:12:14.825Z,75.30
2023-02-26T07:14:45.483Z,75.32
2023-02-26T07:17:20.524Z,76.24
2023-02-26T07:19:49.954Z,75.64
2023-02-26T07:22:21.757Z,74.64
2023-02-26T07:24:51.771Z,72.64
2023-02-26T07:27:19.875Z,74.50
2023-02-26T07:29:48.153Z,74.51
2023-02-26T07:32:18.473Z,74.23
2023-02-26T07:34:46.691Z,73.62
2023-02-26T07:37:15.621Z,76.84
2023-02-26T07:39:44.445Z,75.55
2023-02-26T07:42:14.386Z,74.94
2023-02-26T07:44:42.773Z,77.23
2023-02-26T07:47:12.307Z,74.77
2023-02-26T07:49:42.076Z,74.08
2023-02-26T07:52:13.248Z,75.08
2023-02-26T07:54:41.908Z,75.32
2023-02-26T07:57:10.121Z,74.80
2023-02-26T07:59:38.304Z,77.84
2023-02-26T08:02:08.366Z,75.22
2023-02-26T08:04:36.719Z,74.49
2023-02-26T08:07:06.414Z,76.10
2023-02-26T08:09:35.103Z,76.43
2023-02-26T08:12:03.673Z,74.48
2023-02-26T08:14:31.843Z,75.90
2023-02-26T08:17:00.427Z,75.48
2023-02-26T08:19:28.554Z,75.72
2023-02-26T08:21:57.771Z,75.61
2023-02-26T08:24:27.878Z,74.53
2023-02-26T08:26:59.022Z,74.32
2023-02-26T08:29:27.305Z,76.41
2023-02-26T08:31:56.097Z,74.31
2023-02-26T08:34:24.572Z,74.18
2023-02-26T08:36:52.803Z,72.11
2023-02-26T08:39:21.478Z,72.12
2023-02-26T08:41:51.147Z,71.62
2023-02-26T08:44:19.467Z,70.11
2023-02-26T08:46:47.961Z,69.13
2023-02-26T08:49:16.275Z,70.44
2023-02-26T08:51:44.452Z,69.91
2023-02-26T08:54:13.298Z,68.73
2023-02-26T08:56:41.936Z,69.63
2023-02-26T08:59:13.585Z,70.29
2023-02-26T09:01:41.932Z,71.25
2023-02-26T09:04:10.269Z,73.34
2023-02-26T09:06:39.275Z,71.89
2023-02-26T09:09:07.640Z,70.96
2023-02-26T09:11:36.910Z,70.83
2023-02-26T09:14:06.546Z,72.69
2023-02-26T09:16:37.012Z,72.03
2023-02-26T09:19:06.770Z,70.09
2023-02-26T09:21:35.877Z,70.41
2023-02-26T09:24:04.757Z,71.26
2023-02-26T09:26:33.832Z,70.60
2023-02-26T09:29:01.836Z,69.71
2023-02-26T09:31:32.730Z,70.95
2023-02-26T09:34:02.953Z,69.66
2023-02-26T09:36:31.889Z,67.62
2023-02-26T09:39:01.365Z,66.98
2023-02-26T09:41:32.933Z,67.19
2023-02-26T09:44:23.505Z,65.92
2023-02-26T09:47:06.480Z,68.36
2023-02-26T09:49:49.670Z,66.39
2023-02-26T09:52:25.662Z,67.75
2023-02-26T09:54:58.572Z,68.60
2023-02-26T09:57:33.857Z,66.46
2023-02-26T10:00:03.859Z,67.97
2023-02-26T10:02:40.334Z,67.40
2023-02-26T10:05:20.424Z,68.68
2023-02-26T10:07:57.923Z,65.80
2023-02-26T10:10:37.204Z,67.69
2023-02-26T10:13:06.313Z,66.10
2023-02-26T10:15:41.996Z,68.54
2023-02-26T10:18:14.240Z,66.00
2023-02-26T10:20:54.170Z,65.63
2023-02-26T10:23:28.275Z,64.46
2023-02-26T10:26:06.609Z,67.46
2023-02-26T10:28:48.374Z,64.35
2023-02-26T10:31:27.060Z,67.70
2023-02-26T10:34:05.847Z,65.85
2023-02-26T10:36:45.073Z,65.11
2023-02-26T10:39:23.305Z,62.16
2023-02-26T10:41:54.031Z,62.62
2023-02-26T10:44:30.876Z,65.02
2023-02-26T10:47:07.973Z,62.87
2023-02-26T10:49:54.270Z,67.70
2023-02-26T10:52:27.687Z,65.41
2023-02-26T10:55:16.590Z,64.80
2023-02-26T10:57:52.264Z,62.23
2023-02-26T11:00:22.560Z,63.05
2023-02-26T11:02:53.991Z,62.02
2023-02-26T11:05:24.774Z,61.33
2023-02-26T11:07:57.914Z,62.46
2023-02-26T11:10:28.276Z,63.62
2023-02-26T11:12:56.312Z,62.28
2023-02-26T11:15:28.539Z,60.54
2023-02-26T11:17:59.585Z,60.51
2023-02-26T11:20:35.494Z,62.68
2023-02-26T11:23:08.486Z,59.46
2023-02-26T11:25:38.054Z,64.34
2023-02-26T11:28:08.469Z,59.74
2023-02-26T11:30:39.709Z,59.95
2023-02-26T11:33:19.952Z,59.72
2023-02-26T11:35:49.692Z,59.24
2023-02-26T11:38:26.950Z,60.13
2023-02-26T11:40:58.283Z,60.95
2023-02-26T11:43:34.892Z,58.99
2023-02-26T11:46:06.385Z,59.36
2023-02-26T11:48:42.164Z,57.20
2023-02-26T11:51:17.140Z,57.19
2023-02-26T11:53:54.836Z,59.74
2023-02-26T11:56:29.421Z,60.36
2023-02-26T11:59:02.033Z,58.48
2023-02-26T12:01:31.550Z,58.46
2023-02-26T12:04:02.259Z,58.28
2023-02-26T12:07:14.996Z,59.99
2023-02-26T12:09:45.796Z,60.91
2023-02-26T12:12:30.597Z,60.04
2023-02-26T12:15:11.464Z,60.16
2023-02-26T12:17:55.580Z,62.42
2023-02-26T12:20:29.795Z,59.58
2023-02-26T12:23:31.749Z,60.34
2023-02-26T12:26:14.758Z,60.22
2023-02-26T12:28:57.479Z,61.77
2023-02-26T12:31:48.425Z,60.69
2023-02-26T12:34:52.838Z,60.82
2023-02-26T12:37:35.789Z,59.93
2023-02-26T12:40:17.254Z,60.83
2023-02-26T12:42:55.392Z,59.75
2023-02-26T12:45:39.013Z,58.71
2023-02-26T12:48:28.571Z,58.47
2023-02-26T12:51:10.226Z,58.96
2023-02-26T12:54:05.380Z,58.70
2023-02-26T12:57:00.374Z,59.92
2023-02-26T12:59:54.293Z,59.09
2023-02-26T13:03:03.278Z,57.99
2023-02-26T13:05:45.812Z,58.35
2023-02-26T13:08:23.089Z,58.29
2023-02-26T13:11:05.516Z,59.19
2023-02-26T13:13:54.196Z,58.26
2023-02-26T13:16:35.557Z,58.41
2023-02-26T13:19:13.886Z,59.17
2023-02-26T13:21:48.380Z,60.00
2023-02-26T13:24:23.547Z,59.94
2023-02-26T13:26:54.449Z,58.67
2023-02-26T13:29:28.141Z,58.40
2023-02-26T13:32:01.954Z,59.09
2023-02-26T13:34:39.692Z,61.23
2023-02-26T13:37:16.632Z,61.16
2023-02-26T13:39:52.762Z,60.23
2023-02-26T13:42:31.095Z,60.91
2023-02-26T13:45:20.464Z,62.50
2023-02-26T13:47:57.735Z,62.70
2023-02-26T13:50:32.890Z,62.38
2023-02-26T13:53:05.603Z,61.79
2023-02-26T13:55:42.273Z,59.67
2023-02-26T13:58:37.348Z,60.75
2023-02-26T14:01:12.088Z,60.73
2023-02-26T14:03:47.929Z,61.37
2023-02-26T14:06:38.616Z,60.30
2023-02-26T14:09:27.488Z,59.33
2023-02-26T14:12:02.631Z,60.60
2023-02-26T14:14:40.793Z,60.45
2023-02-26T14:17:32.394Z,60.41
2023-02-26T14:20:25.684Z,61.17
2023-02-26T14:23:32.570Z,61.61
2023-02-26T14:26:08.043Z,60.80
2023-02-26T14:28:45.590Z,60.77
2023-02-26T14:31:26.854Z,61.05
2023-02-26T14:34:15.880Z,60.97
2023-02-26T14:36:48.343Z,62.01
2023-02-26T14:39:27.017Z,62.75
2023-02-26T14:42:03.310Z,61.66
2023-02-26T14:44:38.816Z,62.31
2023-02-26T14:47:07.658Z,61.20
2023-02-26T14:49:40.244Z,62.17
2023-02-26T14:52:32.679Z,61.68
2023-02-26T14:55:33.148Z,61.54
2023-02-26T14:58:25.183Z,61.99
2023-02-26T15:01:19.432Z,62.08
2023-02-26T15:04:12.206Z,62.92
2023-02-26T15:07:05.237Z,62.80
2023-02-26T15:09:46.431Z,63.57
2023-02-26T15:12:29.655Z,63.03
2023-02-26T15:15:13.841Z,62.26
2023-02-26T15:17:59.086Z,61.62
2023-02-26T15:20:37.668Z,60.45
2023-02-26T15:23:22.659Z,61.43
2023-02-26T15:25:52.064Z,61.65
2023-02-26T15:28:27.853Z,61.36
2023-02-26T15:30:57.697Z,61.11
2023-02-26T15:33:28.568Z,62.25
2023-02-26T15:36:00.882Z,61.14
2023-02-26T15:38:30.546Z,59.18
2023-02-26T15:41:04.969Z,59.10
2023-02-26T15:43:34.868Z,59.11
2023-02-26T15:46:03.678Z,58.53
2023-02-26T15:48:39.121Z,58.49
2023-02-26T15:51:10.804Z,58.73
2023-02-26T15:53:43.277Z,59.04
2023-02-26T15:56:13.912Z,60.30
2023-02-26T15:58:46.728Z,59.85
2023-02-26T16:01:18.681Z,60.34
2023-02-26T16:03:51.100Z,59.61
2023-02-26T16:06:21.688Z,60.10
2023-02-26T16:08:51.877Z,60.09
2023-02-26T16:11:22.411Z,60.89
2023-02-26T16:13:53.020Z,61.89
2023-02-26T16:16:27.046Z,62.28
2023-02-26T16:18:58.769Z,61.74
2023-02-26T16:21:32.985Z,61.88
2023-02-26T16:24:04.676Z,62.21
2023-02-26T16:26:38.487Z,62.94
2023-02-26T16:29:12.904Z,62.54
2023-02-26T16:31:44.494Z,62.08
2023-02-26T16:34:30.352Z,62.82
2023-02-26T16:36:59.019Z,63.36
2023-02-26T16:39:31.087Z,64.12
2023-02-26T16:42:05.395Z,65.00
2023-02-26T16:44:50.234Z,64.03
2023-02-26T16:47:21.312Z,65.27
2023-02-26T16:49:50.915Z,64.69
2023-02-26T16:52:23.592Z,64.88
2023-02-26T16:54:59.853Z,64.93
2023-02-26T16:57:37.951Z,64.86
2023-02-26T17:00:10.845Z,64.58
2023-02-26T17:02:40.563Z,64.89
2023-02-26T17:05:24.791Z,65.43
2023-02-26T17:07:58.843Z,65.89
2023-02-26T17:10:33.442Z,66.21
2023-02-26T17:13:15.448Z,66.50
2023-02-26T17:15:45.351Z,66.60
2023-02-26T17:18:14.547Z,66.61
2023-02-26T17:20:44.710Z,67.73
2023-02-26T17:23:17.279Z,67.65
2023-02-26T17:25:48.424Z,68.61
2023-02-26T17:28:22.507Z,70.46
2023-02-26T17:30:50.998Z,72.46
2023-02-26T17:33:19.366Z,72.77
2023-02-26T17:35:50.018Z,73.64
2023-02-26T17:38:18.330Z,73.14
2023-02-26T17:40:48.707Z,72.41
2023-02-26T17:43:17.474Z,71.92
2023-02-26T17:45:45.945Z,71.46
2023-02-26T17:48:15.910Z,70.91
2023-02-26T17:50:48.500Z,68.93
2023-02-26T17:53:19.223Z,68.60
2023-02-26T17:55:49.004Z,68.70
2023-02-26T17:58:22.499Z,68.44
2023-02-26T18:00:53.278Z,69.16
2023-02-26T18:03:22.007Z,69.04
2023-02-26T18:05:51.944Z,69.57
2023-02-26T18:08:24.844Z,70.18
2023-02-26T18:10:54.022Z,70.50
2023-02-26T18:13:22.947Z,71.19
2023-02-26T18:15:52.955Z,70.98
2023-02-26T18:18:22.662Z,71.04
2023-02-26T18:20:51.088Z,72.18
2023-02-26T18:23:20.025Z,71.84
2023-02-26T18:25:51.864Z,72.70
2023-02-26T18:28:23.153Z,73.31
2023-02-26T18:30:52.556Z,72.71
2023-02-26T18:33:22.136Z,73.66
2023-02-26T18:35:55.721Z,73.09
2023-02-26T18:38:26.294Z,73.11
2023-02-26T18:40:57.203Z,73.92
2023-02-26T18:43:27.477Z,73.19
2023-02-26T18:46:01.783Z,73.52
2023-02-26T18:48:30.210Z,73.57
2023-02-26T18:50:59.527Z,74.42
2023-02-26T18:53:28.504Z,74.01
2023-02-26T18:55:58.554Z,74.86
2023-02-26T18:58:28.119Z,74.88
2023-02-26T19:00:57.433Z,75.13
2023-02-26T19:03:25.524Z,75.23
2023-02-26T19:05:59.019Z,75.59
2023-02-26T19:08:27.487Z,74.82
2023-02-26T19:10:57.393Z,74.92
2023-02-26T19:13:26.489Z,75.12
2023-02-26T19:15:55.130Z,74.83
2023-02-26T19:18:23.496Z,74.66
2023-02-26T19:20:52.374Z,74.88
2023-02-26T19:23:21.646Z,73.99
2023-02-26T19:25:52.358Z,74.72
2023-02-26T19:28:23.041Z,74.54
2023-02-26T19:30:55.244Z,74.78
2023-02-26T19:33:24.989Z,74.53
2023-02-26T19:35:53.783Z,75.18
2023-02-26T19:38:23.623Z,74.96
2023-02-26T19:40:52.786Z,74.79
2023-02-26T19:43:23.558Z,74.99
2023-02-26T19:45:52.324Z,75.10
2023-02-26T19:48:21.705Z,75.25
2023-02-26T19:50:52.657Z,75.74
2023-02-26T19:53:22.106Z,75.28
2023-02-26T19:55:50.996Z,76.00
2023-02-26T19:58:20.084Z,76.21
2023-02-26T20:00:50.508Z,75.98
2023-02-26T20:03:18.739Z,75.82
2023-02-26T20:05:47.994Z,76.19
2023-02-26T20:08:17.461Z,76.93
2023-02-26T20:10:46.194Z,76.98
2023-02-26T20:13:15.412Z,76.54
2023-02-26T20:15:44.685Z,76.73
2023-02-26T20:18:16.082Z,77.35
2023-02-26T20:20:45.274Z,77.20
2023-02-26T20:23:13.670Z,77.34
2023-02-26T20:25:49.038Z,77.85
2023-02-26T20:28:17.703Z,77.67
2023-02-26T20:30:46.075Z,77.89
2023-02-26T20:33:16.577Z,78.80
2023-02-26T20:35:46.219Z,79.18
2023-02-26T20:38:14.524Z,78.99
2023-02-26T20:40:43.356Z,78.57
2023-02-26T20:43:12.312Z,78.67
2023-02-26T20:45:41.764Z,79.00
2023-02-26T20:48:11.307Z,79.60
2023-02-26T20:50:41.808Z,79.13
2023-02-26T20:53:11.202Z,79.25
2023-02-26T20:55:39.966Z,79.52
2023-02-26T20:58:08.569Z,78.82
2023-02-26T21:00:37.181Z,79.65
2023-02-26T21:03:08.021Z,79.69
2023-02-26T21:05:39.055Z,79.64
2023-02-26T21:08:10.588Z,79.55
2023-02-26T21:10:41.406Z,80.84
2023-02-26T21:13:10.083Z,79.88
2023-02-26T21:15:38.923Z,80.18
2023-02-26T21:18:07.564Z,79.93
2023-02-26T21:20:36.007Z,80.59
2023-02-26T21:23:04.961Z,80.86
2023-02-26T21:25:34.619Z,81.03
2023-02-26T21:28:03.425Z,80.65
2023-02-26T21:30:32.078Z,80.68
2023-02-26T21:33:00.121Z,80.67
2023-02-26T21:35:28.323Z,80.43
2023-02-26T21:37:57.090Z,80.63
2023-02-26T21:40:25.559Z,81.28
2023-02-26T21:42:55.991Z,81.21
2023-02-26T21:45:24.974Z,81.20
2023-02-26T21:47:54.068Z,80.84
2023-02-26T21:50:22.347Z,80.28
2023-02-26T21:52:51.603Z,81.74
2023-02-26T21:55:20.110Z,81.52
2023-02-26T21:57:48.486Z,80.82
2023-02-26T22:00:20.291Z,81.07
2023-02-26T22:02:49.452Z,81.24
2023-02-26T22:05:18.887Z,81.17
2023-02-26T22:07:48.373Z,81.06
2023-02-26T22:10:16.929Z,82.09
2023-02-26T22:12:45.327Z,81.34
2023-02-26T22:15:14.033Z,81.50
2023-02-26T22:17:43.497Z,81.84
2023-02-26T22:20:14.612Z,81.64
2023-02-26T22:22:42.827Z,81.04
2023-02-26T22:25:13.202Z,81.14
2023-02-26T22:27:41.654Z,81.23
2023-02-26T22:30:11.460Z,81.90
2023-02-26T22:32:39.632Z,80.85
2023-02-26T22:35:11.640Z,81.01
2023-02-26T22:37:40.127Z,80.58
2023-02-26T22:40:10.178Z,80.65
2023-02-26T22:42:39.217Z,80.32
2023-02-26T22:45:08.700Z,80.78
2023-02-26T22:47:37.362Z,79.99
2023-02-26T22:50:06.585Z,80.29
2023-02-26T22:52:36.056Z,79.61
2023-02-26T22:55:04.241Z,80.95
2023-02-26T22:57:32.943Z,80.29
2023-02-26T23:00:01.125Z,80.26
2023-02-26T23:02:29.381Z,80.86
2023-02-26T23:04:58.015Z,80.41
2023-02-26T23:07:26.637Z,80.76
2023-02-26T23:10:02.550Z,80.84
2023-02-26T23:12:31.217Z,80.59
2023-02-26T23:14:59.806Z,81.05
2023-02-26T23:17:29.353Z,80.55
2023-02-26T23:19:57.541Z,80.84
2023-02-26T23:22:26.010Z,80.23
2023-02-26T23:24:55.546Z,80.66
2023-02-26T23:27:23.868Z,80.47
2023-02-26T23:29:52.528Z,80.65
2023-02-26T23:32:21.385Z,80.28
2023-02-26T23:34:49.546Z,80.96
2023-02-26T23:37:17.828Z,80.84
2023-02-26T23:39:48.954Z,80.44
2023-02-26T23:42:18.491Z,80.32
2023-02-26T23:44:47.172Z,81.26
2023-02-26T23:47:15.506Z,80.86
2023-02-26T23:49:44.268Z,80.93
2023-02-26T23:52:13.114Z,80.79
2023-02-26T23:54:41.497Z,81.35
2023-02-26T23:57:10.082Z,81.99
2023-02-26T23:59:40.135Z,82.45
